sensor_id;sensor_type;location;lat;lon;timestamp;temperature;humidity
1297;DHT22;641;48.492;9.184;2022-10-16T00:00:52;18.90;99.90
1297;DHT22;641;48.492;9.184;2022-10-16T00:03:18;18.70;99.90
1297;DHT22;641;48.492;9.184;2022-10-16T00:05:43;18.80;99.90
1297;DHT22;641;48.492;9.184;2022-10-16T00:08:11;18.80;99.90
1297;DHT22;641;48.492;9.184;2022-10-16T00:10:37;18.40;99.90
1297;DHT22;641;48.492;9.184;2022-10-16T00:13:03;18.60;99.90
1297;DHT22;641;48.492;9.184;2022-10-16T00:15:30;18.30;99.90
1297;DHT22;641;48.492;9.184;2022-10-16T00:17:56;18.30;99.90
1297;DHT22;641;48.492;9.184;2022-10-16T00:20:21;18.70;99.90
1297;DHT22;641;48.492;9.184;2022-10-16T00:22:47;18.30;99.90
1297;DHT22;641;48.492;9.184;2022-10-16T00:25:12;18.60;99.90
1297;DHT22;641;48.492;9.184;2022-10-16T00:27:38;18.50;99.90
1297;DHT22;641;48.492;9.184;2022-10-16T00:30:04;18.30;99.90
1297;DHT22;641;48.492;9.184;2022-10-16T00:32:29;17.90;99.90
1297;DHT22;641;48.492;9.184;2022-10-16T00:34:55;17.80;99.90
1297;DHT22;641;48.492;9.184;2022-10-16T00:37:21;18.10;99.90
1297;DHT22;641;48.492;9.184;2022-10-16T00:39:46;18.20;99.90
1297;DHT22;641;48.492;9.184;2022-10-16T00:42:16;18.20;99.90
1297;DHT22;641;48.492;9.184;2022-10-16T00:47:12;17.90;99.90
1297;DHT22;641;48.492;9.184;2022-10-16T00:49:38;17.90;99.90
1297;DHT22;641;48.492;9.184;2022-10-16T00:52:05;18.00;99.90
1297;DHT22;641;48.492;9.184;2022-10-16T00:54:31;17.80;99.90
1297;DHT22;641;48.492;9.184;2022-10-16T00:57:01;17.80;99.90
1297;DHT22;641;48.492;9.184;2022-10-16T00:59:33;17.90;99.90
1297;DHT22;641;48.492;9.184;2022-10-16T01:02:00;18.20;99.90
1297;DHT22;641;48.492;9.184;2022-10-16T01:04:26;17.80;99.90
1297;DHT22;641;48.492;9.184;2022-10-16T01:07:36;17.80;99.90
1297;DHT22;641;48.492;9.184;2022-10-16T01:12:45;17.60;99.90
1297;DHT22;641;48.492;9.184;2022-10-16T01:15:24;17.50;99.90
1297;DHT22;641;48.492;9.184;2022-10-16T01:17:55;17.90;99.90
1297;DHT22;641;48.492;9.184;2022-10-16T01:23:07;17.60;99.90
1297;DHT22;641;48.492;9.184;2022-10-16T01:28:17;17.60;99.90
1297;DHT22;641;48.492;9.184;2022-10-16T01:30:45;17.70;99.90
1297;DHT22;641;48.492;9.184;2022-10-16T01:33:19;17.70;99.90
1297;DHT22;641;48.492;9.184;2022-10-16T01:35:49;17.70;99.90
1297;DHT22;641;48.492;9.184;2022-10-16T01:38:25;18.00;99.90
1297;DHT22;641;48.492;9.184;2022-10-16T01:40:59;17.80;99.90
1297;DHT22;641;48.492;9.184;2022-10-16T01:43:31;17.90;99.90
1297;DHT22;641;48.492;9.184;2022-10-16T01:46:00;17.70;99.90
1297;DHT22;641;48.492;9.184;2022-10-16T01:48:25;17.80;99.90
1297;DHT22;641;48.492;9.184;2022-10-16T01:51:00;17.70;99.90
1297;DHT22;641;48.492;9.184;2022-10-16T01:53:26;17.70;99.90
1297;DHT22;641;48.492;9.184;2022-10-16T01:55:54;17.70;99.90
1297;DHT22;641;48.492;9.184;2022-10-16T01:58:21;18.10;99.90
1297;DHT22;641;48.492;9.184;2022-10-16T02:00:48;18.10;99.90
1297;DHT22;641;48.492;9.184;2022-10-16T02:03:16;17.70;99.90
1297;DHT22;641;48.492;9.184;2022-10-16T02:05:55;17.70;99.90
1297;DHT22;641;48.492;9.184;2022-10-16T02:08:23;18.00;99.90
1297;DHT22;641;48.492;9.184;2022-10-16T02:10:49;17.60;99.90
1297;DHT22;641;48.492;9.184;2022-10-16T02:13:33;17.60;99.90
1297;DHT22;641;48.492;9.184;2022-10-16T02:15:59;17.70;99.90
1297;DHT22;641;48.492;9.184;2022-10-16T02:18:26;17.70;99.90
1297;DHT22;641;48.492;9.184;2022-10-16T02:23:51;17.70;99.90
1297;DHT22;641;48.492;9.184;2022-10-16T02:26:28;17.70;99.90
1297;DHT22;641;48.492;9.184;2022-10-16T02:29:00;17.70;99.90
1297;DHT22;641;48.492;9.184;2022-10-16T02:31:32;17.70;99.90
1297;DHT22;641;48.492;9.184;2022-10-16T02:34:01;17.70;99.90
1297;DHT22;641;48.492;9.184;2022-10-16T02:36:28;18.00;99.90
1297;DHT22;641;48.492;9.184;2022-10-16T02:38:55;17.50;99.90
1297;DHT22;641;48.492;9.184;2022-10-16T02:41:22;17.50;99.90
1297;DHT22;641;48.492;9.184;2022-10-16T02:43:48;17.50;99.90
1297;DHT22;641;48.492;9.184;2022-10-16T02:46:14;17.40;99.90
1297;DHT22;641;48.492;9.184;2022-10-16T02:48:40;17.30;99.90
1297;DHT22;641;48.492;9.184;2022-10-16T02:51:06;17.40;99.90
1297;DHT22;641;48.492;9.184;2022-10-16T02:53:31;17.80;99.90
1297;DHT22;641;48.492;9.184;2022-10-16T02:55:57;17.40;99.90
1297;DHT22;641;48.492;9.184;2022-10-16T02:58:22;17.40;99.90
1297;DHT22;641;48.492;9.184;2022-10-16T03:00:48;17.80;99.90
1297;DHT22;641;48.492;9.184;2022-10-16T03:03:13;17.60;99.90
1297;DHT22;641;48.492;9.184;2022-10-16T03:05:39;17.50;99.90
1297;DHT22;641;48.492;9.184;2022-10-16T03:08:05;17.50;99.90
1297;DHT22;641;48.492;9.184;2022-10-16T03:10:30;17.40;99.90
1297;DHT22;641;48.492;9.184;2022-10-16T03:12:56;17.40;99.90
1297;DHT22;641;48.492;9.184;2022-10-16T03:15:21;17.40;99.90
1297;DHT22;641;48.492;9.184;2022-10-16T03:17:47;17.40;99.90
1297;DHT22;641;48.492;9.184;2022-10-16T03:20:13;17.40;99.90
1297;DHT22;641;48.492;9.184;2022-10-16T03:22:38;17.30;99.90
1297;DHT22;641;48.492;9.184;2022-10-16T03:25:04;17.20;99.90
1297;DHT22;641;48.492;9.184;2022-10-16T03:27:30;17.10;99.90
1297;DHT22;641;48.492;9.184;2022-10-16T03:29:55;17.40;99.90
1297;DHT22;641;48.492;9.184;2022-10-16T03:32:21;17.20;99.90
1297;DHT22;641;48.492;9.184;2022-10-16T03:34:47;17.50;99.90
1297;DHT22;641;48.492;9.184;2022-10-16T03:37:12;17.50;99.90
1297;DHT22;641;48.492;9.184;2022-10-16T03:39:38;17.30;99.90
1297;DHT22;641;48.492;9.184;2022-10-16T03:42:04;17.30;99.90
1297;DHT22;641;48.492;9.184;2022-10-16T03:44:29;17.30;99.90
1297;DHT22;641;48.492;9.184;2022-10-16T03:46:55;17.30;99.90
1297;DHT22;641;48.492;9.184;2022-10-16T03:49:20;17.30;99.90
1297;DHT22;641;48.492;9.184;2022-10-16T03:51:46;17.40;99.90
1297;DHT22;641;48.492;9.184;2022-10-16T03:54:11;17.80;99.90
1297;DHT22;641;48.492;9.184;2022-10-16T03:56:37;17.30;99.90
1297;DHT22;641;48.492;9.184;2022-10-16T03:59:03;17.70;99.90
1297;DHT22;641;48.492;9.184;2022-10-16T04:01:28;17.30;99.90
1297;DHT22;641;48.492;9.184;2022-10-16T04:03:54;17.30;99.90
1297;DHT22;641;48.492;9.184;2022-10-16T04:06:20;17.20;99.90
1297;DHT22;641;48.492;9.184;2022-10-16T04:08:45;17.20;99.90
1297;DHT22;641;48.492;9.184;2022-10-16T04:11:11;17.20;99.90
1297;DHT22;641;48.492;9.184;2022-10-16T04:13:37;17.20;99.90
1297;DHT22;641;48.492;9.184;2022-10-16T04:16:02;17.50;99.90
1297;DHT22;641;48.492;9.184;2022-10-16T04:18:28;17.20;99.90
1297;DHT22;641;48.492;9.184;2022-10-16T04:20:54;17.20;99.90
1297;DHT22;641;48.492;9.184;2022-10-16T04:23:20;17.20;99.90
1297;DHT22;641;48.492;9.184;2022-10-16T04:25:45;17.20;99.90
1297;DHT22;641;48.492;9.184;2022-10-16T04:28:11;17.10;99.90
1297;DHT22;641;48.492;9.184;2022-10-16T04:30:38;17.20;99.90
1297;DHT22;641;48.492;9.184;2022-10-16T04:33:04;17.30;99.90
1297;DHT22;641;48.492;9.184;2022-10-16T04:35:30;17.30;99.90
1297;DHT22;641;48.492;9.184;2022-10-16T04:37:57;17.30;99.90
1297;DHT22;641;48.492;9.184;2022-10-16T04:40:23;17.30;99.90
1297;DHT22;641;48.492;9.184;2022-10-16T04:42:49;17.60;99.90
1297;DHT22;641;48.492;9.184;2022-10-16T04:45:14;17.40;99.90
1297;DHT22;641;48.492;9.184;2022-10-16T04:47:40;17.50;99.90
1297;DHT22;641;48.492;9.184;2022-10-16T04:50:06;17.10;99.90
1297;DHT22;641;48.492;9.184;2022-10-16T04:52:32;17.20;99.90
1297;DHT22;641;48.492;9.184;2022-10-16T04:54:58;17.20;99.90
1297;DHT22;641;48.492;9.184;2022-10-16T04:57:26;17.20;99.90
1297;DHT22;641;48.492;9.184;2022-10-16T04:59:52;17.20;99.90
1297;DHT22;641;48.492;9.184;2022-10-16T05:02:18;17.50;99.90
1297;DHT22;641;48.492;9.184;2022-10-16T05:04:43;17.60;99.90
1297;DHT22;641;48.492;9.184;2022-10-16T05:07:09;17.60;99.90
1297;DHT22;641;48.492;9.184;2022-10-16T05:09:34;17.40;99.90
1297;DHT22;641;48.492;9.184;2022-10-16T05:12:00;17.50;99.90
1297;DHT22;641;48.492;9.184;2022-10-16T05:14:25;17.40;99.90
1297;DHT22;641;48.492;9.184;2022-10-16T05:16:51;17.50;99.90
1297;DHT22;641;48.492;9.184;2022-10-16T05:19:17;17.80;99.90
1297;DHT22;641;48.492;9.184;2022-10-16T05:21:42;17.40;99.90
1297;DHT22;641;48.492;9.184;2022-10-16T05:24:08;17.50;99.90
1297;DHT22;641;48.492;9.184;2022-10-16T05:26:34;17.50;99.90
1297;DHT22;641;48.492;9.184;2022-10-16T05:29:00;17.20;99.90
1297;DHT22;641;48.492;9.184;2022-10-16T05:31:26;17.20;99.90
1297;DHT22;641;48.492;9.184;2022-10-16T05:33:51;17.10;99.90
1297;DHT22;641;48.492;9.184;2022-10-16T05:36:17;17.00;99.90
1297;DHT22;641;48.492;9.184;2022-10-16T05:38:43;17.00;99.90
1297;DHT22;641;48.492;9.184;2022-10-16T05:41:09;17.10;99.90
1297;DHT22;641;48.492;9.184;2022-10-16T05:43:35;16.80;99.90
1297;DHT22;641;48.492;9.184;2022-10-16T05:46:05;16.80;99.90
1297;DHT22;641;48.492;9.184;2022-10-16T05:48:32;17.00;99.90
1297;DHT22;641;48.492;9.184;2022-10-16T05:50:59;16.80;99.90
1297;DHT22;641;48.492;9.184;2022-10-16T05:53:25;17.00;99.90
1297;DHT22;641;48.492;9.184;2022-10-16T05:55:52;16.90;99.90
1297;DHT22;641;48.492;9.184;2022-10-16T05:58:19;16.90;99.90
1297;DHT22;641;48.492;9.184;2022-10-16T06:00:44;17.40;99.90
1297;DHT22;641;48.492;9.184;2022-10-16T06:03:10;17.00;99.90
1297;DHT22;641;48.492;9.184;2022-10-16T06:05:35;16.90;99.90
1297;DHT22;641;48.492;9.184;2022-10-16T06:08:01;17.30;99.90
1297;DHT22;641;48.492;9.184;2022-10-16T06:10:26;17.30;99.90
1297;DHT22;641;48.492;9.184;2022-10-16T06:12:54;17.40;99.90
1297;DHT22;641;48.492;9.184;2022-10-16T06:15:19;17.40;99.90
1297;DHT22;641;48.492;9.184;2022-10-16T06:17:45;17.00;99.90
1297;DHT22;641;48.492;9.184;2022-10-16T06:20:10;17.20;99.90
1297;DHT22;641;48.492;9.184;2022-10-16T06:22:36;17.00;99.90
1297;DHT22;641;48.492;9.184;2022-10-16T06:25:02;17.10;99.90
1297;DHT22;641;48.492;9.184;2022-10-16T06:27:27;17.10;99.90
1297;DHT22;641;48.492;9.184;2022-10-16T06:29:53;17.50;99.90
1297;DHT22;641;48.492;9.184;2022-10-16T06:32:18;17.40;99.90
1297;DHT22;641;48.492;9.184;2022-10-16T06:34:44;17.40;99.90
1297;DHT22;641;48.492;9.184;2022-10-16T06:37:09;17.70;99.90
1297;DHT22;641;48.492;9.184;2022-10-16T06:39:35;17.30;99.90
1297;DHT22;641;48.492;9.184;2022-10-16T06:42:00;17.80;99.90
1297;DHT22;641;48.492;9.184;2022-10-16T06:44:26;17.80;99.90
1297;DHT22;641;48.492;9.184;2022-10-16T06:46:51;17.50;99.90
1297;DHT22;641;48.492;9.184;2022-10-16T06:49:17;17.50;99.90
1297;DHT22;641;48.492;9.184;2022-10-16T06:51:48;18.00;99.90
1297;DHT22;641;48.492;9.184;2022-10-16T06:54:15;18.00;99.90
1297;DHT22;641;48.492;9.184;2022-10-16T06:56:40;17.70;99.90
1297;DHT22;641;48.492;9.184;2022-10-16T06:59:06;18.00;99.90
1297;DHT22;641;48.492;9.184;2022-10-16T07:01:32;18.20;99.90
1297;DHT22;641;48.492;9.184;2022-10-16T07:03:58;18.40;99.90
1297;DHT22;641;48.492;9.184;2022-10-16T07:06:25;17.90;99.90
1297;DHT22;641;48.492;9.184;2022-10-16T07:08:50;18.40;99.90
1297;DHT22;641;48.492;9.184;2022-10-16T07:11:18;18.00;99.90
1297;DHT22;641;48.492;9.184;2022-10-16T07:13:45;18.30;99.90
1297;DHT22;641;48.492;9.184;2022-10-16T07:16:14;18.50;99.90
1297;DHT22;641;48.492;9.184;2022-10-16T07:18:40;18.00;99.90
1297;DHT22;641;48.492;9.184;2022-10-16T07:21:09;18.40;99.90
1297;DHT22;641;48.492;9.184;2022-10-16T07:23:35;18.20;99.90
1297;DHT22;641;48.492;9.184;2022-10-16T07:26:01;18.30;99.90
1297;DHT22;641;48.492;9.184;2022-10-16T07:28:28;18.00;99.90
1297;DHT22;641;48.492;9.184;2022-10-16T07:30:53;18.40;99.90
1297;DHT22;641;48.492;9.184;2022-10-16T07:33:19;18.10;99.90
1297;DHT22;641;48.492;9.184;2022-10-16T07:35:53;18.00;99.90
1297;DHT22;641;48.492;9.184;2022-10-16T07:38:19;18.10;99.90
1297;DHT22;641;48.492;9.184;2022-10-16T07:40:45;18.60;99.90
1297;DHT22;641;48.492;9.184;2022-10-16T07:43:11;18.30;99.90
1297;DHT22;641;48.492;9.184;2022-10-16T07:45:37;18.80;99.90
1297;DHT22;641;48.492;9.184;2022-10-16T07:48:02;18.60;99.90
1297;DHT22;641;48.492;9.184;2022-10-16T07:50:28;18.80;99.90
1297;DHT22;641;48.492;9.184;2022-10-16T07:52:53;19.20;99.90
1297;DHT22;641;48.492;9.184;2022-10-16T07:55:19;19.00;99.90
1297;DHT22;641;48.492;9.184;2022-10-16T07:57:45;19.40;99.90
1297;DHT22;641;48.492;9.184;2022-10-16T08:00:10;19.50;99.90
1297;DHT22;641;48.492;9.184;2022-10-16T08:02:39;19.30;99.90
1297;DHT22;641;48.492;9.184;2022-10-16T08:05:06;19.60;99.90
1297;DHT22;641;48.492;9.184;2022-10-16T08:07:32;19.50;99.90
1297;DHT22;641;48.492;9.184;2022-10-16T08:09:57;19.50;99.90
1297;DHT22;641;48.492;9.184;2022-10-16T08:12:24;19.60;99.90
1297;DHT22;641;48.492;9.184;2022-10-16T08:14:50;19.60;99.90
1297;DHT22;641;48.492;9.184;2022-10-16T08:17:16;19.70;99.90
1297;DHT22;641;48.492;9.184;2022-10-16T08:19:47;19.60;99.90
1297;DHT22;641;48.492;9.184;2022-10-16T08:22:16;19.60;99.90
1297;DHT22;641;48.492;9.184;2022-10-16T08:24:42;19.70;99.90
1297;DHT22;641;48.492;9.184;2022-10-16T08:27:07;19.70;99.90
1297;DHT22;641;48.492;9.184;2022-10-16T08:29:34;19.60;99.90
1297;DHT22;641;48.492;9.184;2022-10-16T08:32:00;19.80;99.90
1297;DHT22;641;48.492;9.184;2022-10-16T08:34:25;19.70;99.90
1297;DHT22;641;48.492;9.184;2022-10-16T08:36:53;19.80;99.90
1297;DHT22;641;48.492;9.184;2022-10-16T08:39:19;19.60;99.90
1297;DHT22;641;48.492;9.184;2022-10-16T08:47:28;20.40;99.90
1297;DHT22;641;48.492;9.184;2022-10-16T08:50:02;20.30;99.90
1297;DHT22;641;48.492;9.184;2022-10-16T08:52:35;20.40;99.90
1297;DHT22;641;48.492;9.184;2022-10-16T08:55:04;20.90;99.90
1297;DHT22;641;48.492;9.184;2022-10-16T08:57:31;20.60;99.90
1297;DHT22;641;48.492;9.184;2022-10-16T09:00:11;21.00;99.90
1297;DHT22;641;48.492;9.184;2022-10-16T09:05:54;20.80;99.90
1297;DHT22;641;48.492;9.184;2022-10-16T09:11:36;21.10;99.90
1297;DHT22;641;48.492;9.184;2022-10-16T09:16:46;21.20;99.90
1297;DHT22;641;48.492;9.184;2022-10-16T09:19:29;21.60;99.90
1297;DHT22;641;48.492;9.184;2022-10-16T09:21:57;21.30;99.90
1297;DHT22;641;48.492;9.184;2022-10-16T09:24:26;21.60;99.90
1297;DHT22;641;48.492;9.184;2022-10-16T09:26:52;21.40;99.90
1297;DHT22;641;48.492;9.184;2022-10-16T09:29:19;20.90;99.90
1297;DHT22;641;48.492;9.184;2022-10-16T09:31:46;20.70;99.90
1297;DHT22;641;48.492;9.184;2022-10-16T09:36:53;20.90;99.90
1297;DHT22;641;48.492;9.184;2022-10-16T09:39:20;21.30;99.90
1297;DHT22;641;48.492;9.184;2022-10-16T09:41:45;21.10;99.90
1297;DHT22;641;48.492;9.184;2022-10-16T09:44:29;21.20;99.90
1297;DHT22;641;48.492;9.184;2022-10-16T09:47:12;21.40;99.90
1297;DHT22;641;48.492;9.184;2022-10-16T09:49:38;21.50;99.90
1297;DHT22;641;48.492;9.184;2022-10-16T09:52:14;21.60;99.90
1297;DHT22;641;48.492;9.184;2022-10-16T09:55:01;21.70;99.90
1297;DHT22;641;48.492;9.184;2022-10-16T09:57:27;21.80;99.90
1297;DHT22;641;48.492;9.184;2022-10-16T09:59:54;21.80;99.90
1297;DHT22;641;48.492;9.184;2022-10-16T10:02:30;22.00;99.90
1297;DHT22;641;48.492;9.184;2022-10-16T10:04:56;22.00;99.90
1297;DHT22;641;48.492;9.184;2022-10-16T10:07:28;22.10;99.90
1297;DHT22;641;48.492;9.184;2022-10-16T10:09:58;22.10;99.90
1297;DHT22;641;48.492;9.184;2022-10-16T10:12:33;22.80;99.90
1297;DHT22;641;48.492;9.184;2022-10-16T10:15:13;22.30;99.90
1297;DHT22;641;48.492;9.184;2022-10-16T10:17:50;22.30;99.90
1297;DHT22;641;48.492;9.184;2022-10-16T10:20:29;22.30;99.90
1297;DHT22;641;48.492;9.184;2022-10-16T10:22:56;22.30;99.90
1297;DHT22;641;48.492;9.184;2022-10-16T10:39:02;22.30;99.90
1297;DHT22;641;48.492;9.184;2022-10-16T10:49:14;22.90;99.90
1297;DHT22;641;48.492;9.184;2022-10-16T10:51:50;23.10;99.90
1297;DHT22;641;48.492;9.184;2022-10-16T10:54:39;23.20;99.90
1297;DHT22;641;48.492;9.184;2022-10-16T10:57:16;23.30;99.90
1297;DHT22;641;48.492;9.184;2022-10-16T11:02:48;23.50;99.90
1297;DHT22;641;48.492;9.184;2022-10-16T11:08:00;23.60;99.90
1297;DHT22;641;48.492;9.184;2022-10-16T11:10:47;23.70;99.10
1297;DHT22;641;48.492;9.184;2022-10-16T11:13:38;23.70;99.10
1297;DHT22;641;48.492;9.184;2022-10-16T11:16:17;23.70;99.60
1297;DHT22;641;48.492;9.184;2022-10-16T11:19:36;23.80;99.20
1297;DHT22;641;48.492;9.184;2022-10-16T11:21:50;23.80;98.70
1297;DHT22;641;48.492;9.184;2022-10-16T11:24:22;23.80;98.50
1297;DHT22;641;48.492;9.184;2022-10-16T11:26:49;23.80;97.70
1297;DHT22;641;48.492;9.184;2022-10-16T11:29:23;23.90;98.60
1297;DHT22;641;48.492;9.184;2022-10-16T11:31:53;24.30;98.30
1297;DHT22;641;48.492;9.184;2022-10-16T11:34:39;24.30;98.20
1297;DHT22;641;48.492;9.184;2022-10-16T11:39:45;24.20;96.90
1297;DHT22;641;48.492;9.184;2022-10-16T11:42:18;24.20;97.30
1297;DHT22;641;48.492;9.184;2022-10-16T11:47:23;24.20;97.00
1297;DHT22;641;48.492;9.184;2022-10-16T11:49:55;24.20;97.20
1297;DHT22;641;48.492;9.184;2022-10-16T11:52:52;24.30;96.30
1297;DHT22;641;48.492;9.184;2022-10-16T11:55:17;24.30;96.80
1297;DHT22;641;48.492;9.184;2022-10-16T11:57:57;24.50;97.40
1297;DHT22;641;48.492;9.184;2022-10-16T12:00:46;24.40;96.80
1297;DHT22;641;48.492;9.184;2022-10-16T12:03:36;24.40;97.40
1297;DHT22;641;48.492;9.184;2022-10-16T12:06:28;24.40;96.70
1297;DHT22;641;48.492;9.184;2022-10-16T12:08:56;24.30;96.90
1297;DHT22;641;48.492;9.184;2022-10-16T12:11:33;24.40;96.60
1297;DHT22;641;48.492;9.184;2022-10-16T12:16:39;24.50;96.50
1297;DHT22;641;48.492;9.184;2022-10-16T12:19:16;24.50;96.70
1297;DHT22;641;48.492;9.184;2022-10-16T12:21:43;24.80;96.20
1297;DHT22;641;48.492;9.184;2022-10-16T12:24:33;24.60;96.50
1297;DHT22;641;48.492;9.184;2022-10-16T12:27:00;24.60;96.50
1297;DHT22;641;48.492;9.184;2022-10-16T12:32:03;24.70;96.30
1297;DHT22;641;48.492;9.184;2022-10-16T12:34:36;24.80;97.00
1297;DHT22;641;48.492;9.184;2022-10-16T12:37:13;24.70;96.40
1297;DHT22;641;48.492;9.184;2022-10-16T12:39:40;24.60;96.20
1297;DHT22;641;48.492;9.184;2022-10-16T12:42:21;24.60;96.80
1297;DHT22;641;48.492;9.184;2022-10-16T12:44:47;24.70;96.50
1297;DHT22;641;48.492;9.184;2022-10-16T12:47:21;24.60;96.60
1297;DHT22;641;48.492;9.184;2022-10-16T12:49:54;24.70;96.20
1297;DHT22;641;48.492;9.184;2022-10-16T12:52:39;24.90;96.70
1297;DHT22;641;48.492;9.184;2022-10-16T12:55:11;24.60;96.40
1297;DHT22;641;48.492;9.184;2022-10-16T13:01:08;24.80;96.50
1297;DHT22;641;48.492;9.184;2022-10-16T13:04:05;24.80;96.60
1297;DHT22;641;48.492;9.184;2022-10-16T13:06:44;24.80;97.20
1297;DHT22;641;48.492;9.184;2022-10-16T13:11:58;25.00;96.00
1297;DHT22;641;48.492;9.184;2022-10-16T13:14:56;25.00;95.70
1297;DHT22;641;48.492;9.184;2022-10-16T13:20:38;24.90;95.50
1297;DHT22;641;48.492;9.184;2022-10-16T13:23:17;24.90;96.20
1297;DHT22;641;48.492;9.184;2022-10-16T13:28:32;25.10;97.00
1297;DHT22;641;48.492;9.184;2022-10-16T13:30:59;25.10;95.90
1297;DHT22;641;48.492;9.184;2022-10-16T13:33:32;25.40;96.20
1297;DHT22;641;48.492;9.184;2022-10-16T13:35:59;25.10;96.20
1297;DHT22;641;48.492;9.184;2022-10-16T13:38:27;25.10;96.40
1297;DHT22;641;48.492;9.184;2022-10-16T13:41:04;25.00;96.30
1297;DHT22;641;48.492;9.184;2022-10-16T13:46:17;25.10;96.80
1297;DHT22;641;48.492;9.184;2022-10-16T13:48:43;25.00;97.00
1297;DHT22;641;48.492;9.184;2022-10-16T13:51:15;25.20;97.70
1297;DHT22;641;48.492;9.184;2022-10-16T13:53:42;25.00;97.70
1297;DHT22;641;48.492;9.184;2022-10-16T13:56:12;25.10;98.00
1297;DHT22;641;48.492;9.184;2022-10-16T13:58:39;25.10;97.90
1297;DHT22;641;48.492;9.184;2022-10-16T14:01:14;25.10;97.80
1297;DHT22;641;48.492;9.184;2022-10-16T14:03:41;25.10;96.80
1297;DHT22;641;48.492;9.184;2022-10-16T14:06:15;25.20;96.90
1297;DHT22;641;48.492;9.184;2022-10-16T14:08:47;25.20;95.90
1297;DHT22;641;48.492;9.184;2022-10-16T14:11:20;25.50;95.90
1297;DHT22;641;48.492;9.184;2022-10-16T14:13:47;25.20;95.70
1297;DHT22;641;48.492;9.184;2022-10-16T14:16:18;25.50;95.90
1297;DHT22;641;48.492;9.184;2022-10-16T14:19:01;25.40;96.10
1297;DHT22;641;48.492;9.184;2022-10-16T14:21:28;25.30;95.40
1297;DHT22;641;48.492;9.184;2022-10-16T14:23:54;25.30;95.30
1297;DHT22;641;48.492;9.184;2022-10-16T14:26:22;25.30;95.70
1297;DHT22;641;48.492;9.184;2022-10-16T14:29:00;25.30;95.70
1297;DHT22;641;48.492;9.184;2022-10-16T14:31:31;25.30;96.30
1297;DHT22;641;48.492;9.184;2022-10-16T14:33:58;25.30;96.40
1297;DHT22;641;48.492;9.184;2022-10-16T14:36:25;25.30;95.90
1297;DHT22;641;48.492;9.184;2022-10-16T14:41:23;25.10;97.10
1297;DHT22;641;48.492;9.184;2022-10-16T14:43:54;25.10;96.70
1297;DHT22;641;48.492;9.184;2022-10-16T14:46:27;25.10;97.80
1297;DHT22;641;48.492;9.184;2022-10-16T14:49:00;25.10;97.60
1297;DHT22;641;48.492;9.184;2022-10-16T14:51:26;25.10;99.10
1297;DHT22;641;48.492;9.184;2022-10-16T14:53:51;25.40;99.60
1297;DHT22;641;48.492;9.184;2022-10-16T14:56:23;25.10;99.70
1297;DHT22;641;48.492;9.184;2022-10-16T14:58:50;25.10;98.70
1297;DHT22;641;48.492;9.184;2022-10-16T15:01:17;25.10;96.20
1297;DHT22;641;48.492;9.184;2022-10-16T15:03:42;25.40;96.50
1297;DHT22;641;48.492;9.184;2022-10-16T15:06:12;25.40;96.80
1297;DHT22;641;48.492;9.184;2022-10-16T15:08:39;25.40;98.50
1297;DHT22;641;48.492;9.184;2022-10-16T15:11:05;25.10;98.30
1297;DHT22;641;48.492;9.184;2022-10-16T15:13:33;25.00;98.60
1297;DHT22;641;48.492;9.184;2022-10-16T15:15:58;25.30;99.40
1297;DHT22;641;48.492;9.184;2022-10-16T15:18:24;24.90;99.80
1297;DHT22;641;48.492;9.184;2022-10-16T15:20:51;24.80;99.90
1297;DHT22;641;48.492;9.184;2022-10-16T15:23:19;25.00;99.90
1297;DHT22;641;48.492;9.184;2022-10-16T15:25:47;25.00;99.90
1297;DHT22;641;48.492;9.184;2022-10-16T15:28:13;24.60;99.90
1297;DHT22;641;48.492;9.184;2022-10-16T15:30:39;24.60;99.90
1297;DHT22;641;48.492;9.184;2022-10-16T15:33:11;24.50;99.90
1297;DHT22;641;48.492;9.184;2022-10-16T15:35:37;24.60;99.90
1297;DHT22;641;48.492;9.184;2022-10-16T15:38:03;24.60;99.90
1297;DHT22;641;48.492;9.184;2022-10-16T15:40:28;24.40;99.90
1297;DHT22;641;48.492;9.184;2022-10-16T15:42:54;24.60;99.90
1297;DHT22;641;48.492;9.184;2022-10-16T15:45:20;24.60;99.90
1297;DHT22;641;48.492;9.184;2022-10-16T15:47:45;24.60;99.90
1297;DHT22;641;48.492;9.184;2022-10-16T15:50:13;24.70;99.90
1297;DHT22;641;48.492;9.184;2022-10-16T15:52:39;24.80;99.90
1297;DHT22;641;48.492;9.184;2022-10-16T15:55:07;24.70;99.90
1297;DHT22;641;48.492;9.184;2022-10-16T15:57:33;24.30;99.90
1297;DHT22;641;48.492;9.184;2022-10-16T15:59:58;24.20;99.90
1297;DHT22;641;48.492;9.184;2022-10-16T16:02:24;24.20;99.90
1297;DHT22;641;48.492;9.184;2022-10-16T16:04:49;24.10;99.90
1297;DHT22;641;48.492;9.184;2022-10-16T16:07:15;24.10;99.90
1297;DHT22;641;48.492;9.184;2022-10-16T16:09:41;24.50;99.90
1297;DHT22;641;48.492;9.184;2022-10-16T16:12:06;23.90;99.90
1297;DHT22;641;48.492;9.184;2022-10-16T16:14:32;23.80;99.90
1297;DHT22;641;48.492;9.184;2022-10-16T16:16:58;23.80;99.90
1297;DHT22;641;48.492;9.184;2022-10-16T16:19:23;23.90;99.90
1297;DHT22;641;48.492;9.184;2022-10-16T16:21:50;23.30;99.90
1297;DHT22;641;48.492;9.184;2022-10-16T16:24:15;23.70;99.90
1297;DHT22;641;48.492;9.184;2022-10-16T16:26:41;23.40;99.90
1297;DHT22;641;48.492;9.184;2022-10-16T16:29:11;23.70;99.90
1297;DHT22;641;48.492;9.184;2022-10-16T16:31:38;23.60;99.90
1297;DHT22;641;48.492;9.184;2022-10-16T16:34:04;23.20;99.90
1297;DHT22;641;48.492;9.184;2022-10-16T16:36:31;23.50;99.90
1297;DHT22;641;48.492;9.184;2022-10-16T16:38:57;23.00;99.90
1297;DHT22;641;48.492;9.184;2022-10-16T16:41:27;22.90;99.90
1297;DHT22;641;48.492;9.184;2022-10-16T16:43:53;22.90;99.90
1297;DHT22;641;48.492;9.184;2022-10-16T16:46:20;22.70;99.90
1297;DHT22;641;48.492;9.184;2022-10-16T16:48:46;22.90;99.90
1297;DHT22;641;48.492;9.184;2022-10-16T16:51:14;22.70;99.90
1297;DHT22;641;48.492;9.184;2022-10-16T16:53:47;22.60;99.90
1297;DHT22;641;48.492;9.184;2022-10-16T16:56:12;22.40;99.90
1297;DHT22;641;48.492;9.184;2022-10-16T16:58:38;22.60;99.90
1297;DHT22;641;48.492;9.184;2022-10-16T17:01:04;22.10;99.90
1297;DHT22;641;48.492;9.184;2022-10-16T17:03:32;22.60;99.90
1297;DHT22;641;48.492;9.184;2022-10-16T17:06:04;22.30;99.90
1297;DHT22;641;48.492;9.184;2022-10-16T17:08:30;22.20;99.90
1297;DHT22;641;48.492;9.184;2022-10-16T17:10:57;22.50;99.90
1297;DHT22;641;48.492;9.184;2022-10-16T17:13:24;22.40;99.90
1297;DHT22;641;48.492;9.184;2022-10-16T17:15:50;22.20;99.90
1297;DHT22;641;48.492;9.184;2022-10-16T17:18:16;21.80;99.90
1297;DHT22;641;48.492;9.184;2022-10-16T17:20:42;22.00;99.90
1297;DHT22;641;48.492;9.184;2022-10-16T17:23:09;21.80;99.90
1297;DHT22;641;48.492;9.184;2022-10-16T17:25:35;21.80;99.90
1297;DHT22;641;48.492;9.184;2022-10-16T17:28:01;22.10;99.90
1297;DHT22;641;48.492;9.184;2022-10-16T17:30:27;21.40;99.90
1297;DHT22;641;48.492;9.184;2022-10-16T17:32:53;22.20;99.90
1297;DHT22;641;48.492;9.184;2022-10-16T17:35:18;21.60;99.90
1297;DHT22;641;48.492;9.184;2022-10-16T17:37:44;21.90;99.90
1297;DHT22;641;48.492;9.184;2022-10-16T17:40:10;21.60;99.90
1297;DHT22;641;48.492;9.184;2022-10-16T17:42:35;21.30;99.90
1297;DHT22;641;48.492;9.184;2022-10-16T17:45:01;21.70;99.90
1297;DHT22;641;48.492;9.184;2022-10-16T17:47:27;21.20;99.90
1297;DHT22;641;48.492;9.184;2022-10-16T17:49:53;21.20;99.90
1297;DHT22;641;48.492;9.184;2022-10-16T17:52:19;21.10;99.90